sensor_id;sensor_type;location;lat;lon;timestamp;P1;durP1;ratioP1;P2;durP2;ratioP2
44512;SDS011;30219;50.588;9.504;2022-12-18T00:01:52;33.20;;;12.55;;
44512;SDS011;30219;50.588;9.504;2022-12-18T00:04:00;30.63;;;11.68;;
44512;SDS011;30219;50.588;9.504;2022-12-18T00:06:31;28.35;;;12.32;;
44512;SDS011;30219;50.588;9.504;2022-12-18T00:08:58;26.98;;;11.85;;
44512;SDS011;30219;50.588;9.504;2022-12-18T00:11:26;29.45;;;12.65;;
44512;SDS011;30219;50.588;9.504;2022-12-18T00:13:55;28.42;;;12.60;;
44512;SDS011;30219;50.588;9.504;2022-12-18T00:16:22;33.03;;;13.57;;
44512;SDS011;30219;50.588;9.504;2022-12-18T00:18:50;34.83;;;13.50;;
44512;SDS011;30219;50.588;9.504;2022-12-18T00:21:19;29.80;;;12.32;;
44512;SDS011;30219;50.588;9.504;2022-12-18T00:23:45;33.67;;;13.38;;
44512;SDS011;30219;50.588;9.504;2022-12-18T00:26:19;34.10;;;13.57;;
44512;SDS011;30219;50.588;9.504;2022-12-18T00:28:46;37.58;;;14.15;;
44512;SDS011;30219;50.588;9.504;2022-12-18T00:31:13;52.63;;;17.25;;
44512;SDS011;30219;50.588;9.504;2022-12-18T00:33:40;40.60;;;14.13;;
44512;SDS011;30219;50.588;9.504;2022-12-18T00:36:07;50.78;;;18.70;;
44512;SDS011;30219;50.588;9.504;2022-12-18T00:38:36;62.40;;;19.55;;
44512;SDS011;30219;50.588;9.504;2022-12-18T00:41:02;57.47;;;17.60;;
44512;SDS011;30219;50.588;9.504;2022-12-18T00:43:29;45.83;;;15.73;;
44512;SDS011;30219;50.588;9.504;2022-12-18T00:45:54;37.85;;;14.20;;
44512;SDS011;30219;50.588;9.504;2022-12-18T00:48:20;32.30;;;12.68;;
44512;SDS011;30219;50.588;9.504;2022-12-18T00:50:47;36.08;;;13.88;;
44512;SDS011;30219;50.588;9.504;2022-12-18T00:53:13;33.10;;;13.30;;
44512;SDS011;30219;50.588;9.504;2022-12-18T00:55:39;27.52;;;12.40;;
44512;SDS011;30219;50.588;9.504;2022-12-18T00:58:05;26.98;;;11.48;;
44512;SDS011;30219;50.588;9.504;2022-12-18T01:00:30;27.05;;;11.27;;
44512;SDS011;30219;50.588;9.504;2022-12-18T01:02:56;24.17;;;11.60;;
44512;SDS011;30219;50.588;9.504;2022-12-18T01:05:21;33.78;;;11.90;;
44512;SDS011;30219;50.588;9.504;2022-12-18T01:07:47;34.20;;;12.98;;
44512;SDS011;30219;50.588;9.504;2022-12-18T01:10:13;36.33;;;12.50;;
44512;SDS011;30219;50.588;9.504;2022-12-18T01:12:38;35.70;;;14.05;;
44512;SDS011;30219;50.588;9.504;2022-12-18T01:15:04;35.35;;;12.60;;
44512;SDS011;30219;50.588;9.504;2022-12-18T01:17:31;30.58;;;11.75;;
44512;SDS011;30219;50.588;9.504;2022-12-18T01:19:57;34.42;;;12.43;;
44512;SDS011;30219;50.588;9.504;2022-12-18T01:22:22;22.17;;;10.13;;
44512;SDS011;30219;50.588;9.504;2022-12-18T01:24:48;28.52;;;11.88;;
44512;SDS011;30219;50.588;9.504;2022-12-18T01:27:14;23.67;;;9.65;;
44512;SDS011;30219;50.588;9.504;2022-12-18T01:29:39;25.67;;;10.32;;
44512;SDS011;30219;50.588;9.504;2022-12-18T01:32:05;28.58;;;12.95;;
44512;SDS011;30219;50.588;9.504;2022-12-18T01:34:31;37.72;;;13.75;;
44512;SDS011;30219;50.588;9.504;2022-12-18T01:36:56;48.53;;;15.63;;
44512;SDS011;30219;50.588;9.504;2022-12-18T01:39:22;76.75;;;19.60;;
44512;SDS011;30219;50.588;9.504;2022-12-18T01:41:48;46.30;;;15.52;;
44512;SDS011;30219;50.588;9.504;2022-12-18T01:44:47;45.75;;;15.93;;
44512;SDS011;30219;50.588;9.504;2022-12-18T01:47:26;35.70;;;13.02;;
44512;SDS011;30219;50.588;9.504;2022-12-18T01:49:53;46.13;;;17.27;;
44512;SDS011;30219;50.588;9.504;2022-12-18T01:52:21;39.40;;;14.98;;
44512;SDS011;30219;50.588;9.504;2022-12-18T01:54:49;38.63;;;13.93;;
44512;SDS011;30219;50.588;9.504;2022-12-18T01:57:17;39.38;;;15.02;;
44512;SDS011;30219;50.588;9.504;2022-12-18T01:59:43;44.95;;;14.70;;
44512;SDS011;30219;50.588;9.504;2022-12-18T02:02:11;37.80;;;14.80;;
44512;SDS011;30219;50.588;9.504;2022-12-18T02:04:37;33.55;;;14.88;;
44512;SDS011;30219;50.588;9.504;2022-12-18T02:07:08;40.75;;;16.00;;
44512;SDS011;30219;50.588;9.504;2022-12-18T02:12:45;34.92;;;15.20;;
44512;SDS011;30219;50.588;9.504;2022-12-18T02:15:24;38.42;;;15.10;;
44512;SDS011;30219;50.588;9.504;2022-12-18T02:17:56;31.33;;;13.70;;
44512;SDS011;30219;50.588;9.504;2022-12-18T02:20:29;31.90;;;14.38;;
44512;SDS011;30219;50.588;9.504;2022-12-18T02:26:11;35.78;;;14.02;;
44512;SDS011;30219;50.588;9.504;2022-12-18T02:28:51;36.60;;;14.68;;
44512;SDS011;30219;50.588;9.504;2022-12-18T02:31:30;33.88;;;13.43;;
44512;SDS011;30219;50.588;9.504;2022-12-18T02:34:02;35.65;;;11.50;;
44512;SDS011;30219;50.588;9.504;2022-12-18T02:36:31;31.50;;;14.70;;
44512;SDS011;30219;50.588;9.504;2022-12-18T02:38:58;39.10;;;14.18;;
44512;SDS011;30219;50.588;9.504;2022-12-18T02:41:26;33.05;;;13.65;;
44512;SDS011;30219;50.588;9.504;2022-12-18T02:43:55;35.00;;;14.20;;
44512;SDS011;30219;50.588;9.504;2022-12-18T02:46:35;34.05;;;14.63;;
44512;SDS011;30219;50.588;9.504;2022-12-18T02:49:17;35.92;;;13.95;;
44512;SDS011;30219;50.588;9.504;2022-12-18T02:51:54;33.33;;;13.32;;
44512;SDS011;30219;50.588;9.504;2022-12-18T02:54:33;36.45;;;14.40;;
44512;SDS011;30219;50.588;9.504;2022-12-18T03:00:03;32.78;;;14.07;;
44512;SDS011;30219;50.588;9.504;2022-12-18T03:02:45;38.40;;;17.85;;
44512;SDS011;30219;50.588;9.504;2022-12-18T03:07:44;50.38;;;15.05;;
44512;SDS011;30219;50.588;9.504;2022-12-18T03:10:24;41.58;;;16.30;;
44512;SDS011;30219;50.588;9.504;2022-12-18T03:13:03;37.58;;;15.43;;
44512;SDS011;30219;50.588;9.504;2022-12-18T03:15:44;57.92;;;15.75;;
44512;SDS011;30219;50.588;9.504;2022-12-18T03:18:22;43.63;;;16.10;;
44512;SDS011;30219;50.588;9.504;2022-12-18T03:20:51;36.95;;;15.13;;
44512;SDS011;30219;50.588;9.504;2022-12-18T03:23:22;36.97;;;14.55;;
44512;SDS011;30219;50.588;9.504;2022-12-18T03:25:52;39.83;;;16.20;;
44512;SDS011;30219;50.588;9.504;2022-12-18T03:28:22;42.22;;;15.93;;
44512;SDS011;30219;50.588;9.504;2022-12-18T03:30:49;38.33;;;15.82;;
44512;SDS011;30219;50.588;9.504;2022-12-18T03:33:25;43.90;;;16.05;;
44512;SDS011;30219;50.588;9.504;2022-12-18T03:35:54;39.42;;;15.88;;
44512;SDS011;30219;50.588;9.504;2022-12-18T03:38:20;34.33;;;13.80;;
44512;SDS011;30219;50.588;9.504;2022-12-18T03:46:30;35.60;;;13.95;;
44512;SDS011;30219;50.588;9.504;2022-12-18T03:49:11;36.88;;;14.57;;
44512;SDS011;30219;50.588;9.504;2022-12-18T03:54:33;29.95;;;12.18;;
44512;SDS011;30219;50.588;9.504;2022-12-18T03:57:03;35.92;;;13.38;;
44512;SDS011;30219;50.588;9.504;2022-12-18T03:59:32;34.28;;;14.43;;
44512;SDS011;30219;50.588;9.504;2022-12-18T04:01:59;33.15;;;13.00;;
44512;SDS011;30219;50.588;9.504;2022-12-18T04:04:28;34.70;;;13.93;;
44512;SDS011;30219;50.588;9.504;2022-12-18T04:06:56;33.33;;;13.57;;
44512;SDS011;30219;50.588;9.504;2022-12-18T04:09:23;36.03;;;13.00;;
44512;SDS011;30219;50.588;9.504;2022-12-18T04:11:51;31.17;;;14.15;;
44512;SDS011;30219;50.588;9.504;2022-12-18T04:14:17;32.95;;;11.90;;
44512;SDS011;30219;50.588;9.504;2022-12-18T04:16:42;28.65;;;12.10;;
44512;SDS011;30219;50.588;9.504;2022-12-18T04:19:08;24.70;;;11.00;;
44512;SDS011;30219;50.588;9.504;2022-12-18T04:21:33;28.33;;;12.10;;
44512;SDS011;30219;50.588;9.504;2022-12-18T04:23:59;31.25;;;12.55;;
44512;SDS011;30219;50.588;9.504;2022-12-18T04:26:24;28.23;;;11.93;;
44512;SDS011;30219;50.588;9.504;2022-12-18T04:28:50;25.67;;;11.30;;
44512;SDS011;30219;50.588;9.504;2022-12-18T04:31:15;32.88;;;12.30;;
44512;SDS011;30219;50.588;9.504;2022-12-18T04:33:41;26.02;;;11.25;;
44512;SDS011;30219;50.588;9.504;2022-12-18T04:36:06;36.38;;;12.40;;
44512;SDS011;30219;50.588;9.504;2022-12-18T04:38:32;29.67;;;12.02;;
44512;SDS011;30219;50.588;9.504;2022-12-18T04:40:58;28.88;;;12.25;;
44512;SDS011;30219;50.588;9.504;2022-12-18T04:43:23;37.67;;;14.00;;
44512;SDS011;30219;50.588;9.504;2022-12-18T04:45:49;26.73;;;12.05;;
44512;SDS011;30219;50.588;9.504;2022-12-18T04:48:14;30.75;;;11.85;;
44512;SDS011;30219;50.588;9.504;2022-12-18T04:50:40;25.30;;;12.02;;
44512;SDS011;30219;50.588;9.504;2022-12-18T04:53:05;29.08;;;12.10;;
44512;SDS011;30219;50.588;9.504;2022-12-18T04:55:31;30.67;;;12.95;;
44512;SDS011;30219;50.588;9.504;2022-12-18T04:57:56;31.70;;;13.07;;
44512;SDS011;30219;50.588;9.504;2022-12-18T05:00:22;28.30;;;11.65;;
44512;SDS011;30219;50.588;9.504;2022-12-18T05:02:48;28.92;;;12.00;;
44512;SDS011;30219;50.588;9.504;2022-12-18T05:05:13;34.97;;;12.80;;
44512;SDS011;30219;50.588;9.504;2022-12-18T05:07:39;29.08;;;13.57;;
44512;SDS011;30219;50.588;9.504;2022-12-18T05:10:07;37.25;;;13.43;;
44512;SDS011;30219;50.588;9.504;2022-12-18T05:12:33;28.65;;;11.98;;
44512;SDS011;30219;50.588;9.504;2022-12-18T05:15:19;28.25;;;11.75;;
44512;SDS011;30219;50.588;9.504;2022-12-18T05:17:44;29.13;;;12.30;;
44512;SDS011;30219;50.588;9.504;2022-12-18T05:20:10;27.83;;;11.77;;
44512;SDS011;30219;50.588;9.504;2022-12-18T05:22:35;27.27;;;10.90;;
44512;SDS011;30219;50.588;9.504;2022-12-18T05:25:01;27.15;;;10.07;;
44512;SDS011;30219;50.588;9.504;2022-12-18T05:27:26;25.67;;;10.00;;
44512;SDS011;30219;50.588;9.504;2022-12-18T05:29:52;28.42;;;11.13;;
44512;SDS011;30219;50.588;9.504;2022-12-18T05:32:17;35.03;;;11.48;;
44512;SDS011;30219;50.588;9.504;2022-12-18T05:34:43;26.27;;;10.90;;
44512;SDS011;30219;50.588;9.504;2022-12-18T05:37:08;29.85;;;11.10;;
44512;SDS011;30219;50.588;9.504;2022-12-18T05:39:34;30.15;;;10.57;;
44512;SDS011;30219;50.588;9.504;2022-12-18T05:41:59;25.27;;;10.10;;
44512;SDS011;30219;50.588;9.504;2022-12-18T05:44:25;25.40;;;11.23;;
44512;SDS011;30219;50.588;9.504;2022-12-18T05:46:50;26.08;;;10.95;;
44512;SDS011;30219;50.588;9.504;2022-12-18T05:49:16;29.75;;;10.15;;
44512;SDS011;30219;50.588;9.504;2022-12-18T05:51:41;22.58;;;10.80;;
44512;SDS011;30219;50.588;9.504;2022-12-18T05:54:07;25.90;;;10.45;;
44512;SDS011;30219;50.588;9.504;2022-12-18T05:56:32;23.73;;;11.30;;
44512;SDS011;30219;50.588;9.504;2022-12-18T05:58:58;20.70;;;9.85;;
44512;SDS011;30219;50.588;9.504;2022-12-18T06:01:24;24.95;;;11.18;;
44512;SDS011;30219;50.588;9.504;2022-12-18T06:03:51;25.98;;;11.13;;
44512;SDS011;30219;50.588;9.504;2022-12-18T06:06:18;20.30;;;10.10;;
44512;SDS011;30219;50.588;9.504;2022-12-18T06:08:45;27.33;;;10.25;;
44512;SDS011;30219;50.588;9.504;2022-12-18T06:11:13;25.38;;;11.02;;
44512;SDS011;30219;50.588;9.504;2022-12-18T06:13:41;29.90;;;11.02;;
44512;SDS011;30219;50.588;9.504;2022-12-18T06:16:06;29.00;;;10.43;;
44512;SDS011;30219;50.588;9.504;2022-12-18T06:18:33;26.77;;;10.57;;
44512;SDS011;30219;50.588;9.504;2022-12-18T06:20:59;24.40;;;10.55;;
44512;SDS011;30219;50.588;9.504;2022-12-18T06:23:25;30.63;;;11.02;;
44512;SDS011;30219;50.588;9.504;2022-12-18T06:25:51;24.73;;;10.13;;
44512;SDS011;30219;50.588;9.504;2022-12-18T06:28:17;21.17;;;10.07;;
44512;SDS011;30219;50.588;9.504;2022-12-18T06:30:43;26.45;;;10.13;;
44512;SDS011;30219;50.588;9.504;2022-12-18T06:33:09;25.48;;;10.38;;
44512;SDS011;30219;50.588;9.504;2022-12-18T06:35:35;22.38;;;10.18;;
44512;SDS011;30219;50.588;9.504;2022-12-18T06:38:01;24.92;;;10.18;;
44512;SDS011;30219;50.588;9.504;2022-12-18T06:40:27;22.70;;;9.88;;
44512;SDS011;30219;50.588;9.504;2022-12-18T06:42:53;22.23;;;10.50;;
44512;SDS011;30219;50.588;9.504;2022-12-18T06:45:18;28.45;;;11.07;;
44512;SDS011;30219;50.588;9.504;2022-12-18T06:47:44;26.15;;;10.15;;
44512;SDS011;30219;50.588;9.504;2022-12-18T06:50:09;27.08;;;10.45;;
44512;SDS011;30219;50.588;9.504;2022-12-18T06:52:35;28.48;;;10.38;;
44512;SDS011;30219;50.588;9.504;2022-12-18T06:55:01;30.38;;;11.85;;
44512;SDS011;30219;50.588;9.504;2022-12-18T06:57:27;30.13;;;11.80;;
44512;SDS011;30219;50.588;9.504;2022-12-18T06:59:53;29.92;;;9.88;;
44512;SDS011;30219;50.588;9.504;2022-12-18T07:02:18;32.13;;;10.25;;
44512;SDS011;30219;50.588;9.504;2022-12-18T07:04:44;28.30;;;12.15;;
44512;SDS011;30219;50.588;9.504;2022-12-18T07:07:09;29.30;;;12.13;;
44512;SDS011;30219;50.588;9.504;2022-12-18T07:09:35;22.48;;;10.07;;
44512;SDS011;30219;50.588;9.504;2022-12-18T07:12:00;28.30;;;10.68;;
44512;SDS011;30219;50.588;9.504;2022-12-18T07:14:26;28.42;;;11.30;;
44512;SDS011;30219;50.588;9.504;2022-12-18T07:16:51;26.20;;;10.40;;
44512;SDS011;30219;50.588;9.504;2022-12-18T07:19:17;27.75;;;10.50;;
44512;SDS011;30219;50.588;9.504;2022-12-18T07:21:42;27.08;;;11.30;;
44512;SDS011;30219;50.588;9.504;2022-12-18T07:24:08;27.83;;;11.77;;
44512;SDS011;30219;50.588;9.504;2022-12-18T07:26:33;29.48;;;11.18;;
44512;SDS011;30219;50.588;9.504;2022-12-18T07:28:59;25.75;;;10.38;;
44512;SDS011;30219;50.588;9.504;2022-12-18T07:31:25;30.15;;;10.70;;
44512;SDS011;30219;50.588;9.504;2022-12-18T07:33:52;28.30;;;10.68;;
44512;SDS011;30219;50.588;9.504;2022-12-18T07:36:17;27.70;;;11.13;;
44512;SDS011;30219;50.588;9.504;2022-12-18T07:38:46;30.60;;;11.73;;
44512;SDS011;30219;50.588;9.504;2022-12-18T07:41:13;33.45;;;11.40;;
44512;SDS011;30219;50.588;9.504;2022-12-18T07:43:39;25.20;;;9.48;;
44512;SDS011;30219;50.588;9.504;2022-12-18T07:46:06;24.92;;;10.50;;
44512;SDS011;30219;50.588;9.504;2022-12-18T07:48:32;33.75;;;11.60;;
44512;SDS011;30219;50.588;9.504;2022-12-18T07:50:58;39.85;;;11.68;;
44512;SDS011;30219;50.588;9.504;2022-12-18T07:53:25;54.85;;;12.60;;
44512;SDS011;30219;50.588;9.504;2022-12-18T07:55:55;29.05;;;11.05;;
44512;SDS011;30219;50.588;9.504;2022-12-18T07:58:24;36.28;;;11.65;;
44512;SDS011;30219;50.588;9.504;2022-12-18T08:00:50;35.90;;;12.88;;
44512;SDS011;30219;50.588;9.504;2022-12-18T08:03:17;30.50;;;11.63;;
44512;SDS011;30219;50.588;9.504;2022-12-18T08:05:43;42.03;;;11.50;;
44512;SDS011;30219;50.588;9.504;2022-12-18T08:08:08;26.10;;;10.00;;
44512;SDS011;30219;50.588;9.504;2022-12-18T08:10:34;23.65;;;10.25;;
44512;SDS011;30219;50.588;9.504;2022-12-18T08:12:59;39.63;;;11.77;;
44512;SDS011;30219;50.588;9.504;2022-12-18T08:15:25;28.67;;;11.35;;
44512;SDS011;30219;50.588;9.504;2022-12-18T08:17:50;41.70;;;11.38;;
44512;SDS011;30219;50.588;9.504;2022-12-18T08:20:16;26.52;;;10.77;;
44512;SDS011;30219;50.588;9.504;2022-12-18T08:22:43;26.60;;;11.27;;
44512;SDS011;30219;50.588;9.504;2022-12-18T08:25:09;27.98;;;10.95;;
44512;SDS011;30219;50.588;9.504;2022-12-18T08:27:35;36.22;;;11.35;;
44512;SDS011;30219;50.588;9.504;2022-12-18T08:30:01;28.63;;;10.68;;
44512;SDS011;30219;50.588;9.504;2022-12-18T08:32:28;44.55;;;14.10;;
44512;SDS011;30219;50.588;9.504;2022-12-18T08:34:53;35.88;;;14.85;;
44512;SDS011;30219;50.588;9.504;2022-12-18T08:37:19;44.80;;;13.88;;
44512;SDS011;30219;50.588;9.504;2022-12-18T08:39:44;28.00;;;13.32;;
44512;SDS011;30219;50.588;9.504;2022-12-18T08:42:10;35.33;;;12.57;;
44512;SDS011;30219;50.588;9.504;2022-12-18T08:44:55;41.08;;;13.30;;
44512;SDS011;30219;50.588;9.504;2022-12-18T08:47:20;27.05;;;13.70;;
44512;SDS011;30219;50.588;9.504;2022-12-18T08:49:46;44.38;;;20.20;;
44512;SDS011;30219;50.588;9.504;2022-12-18T08:52:11;38.33;;;17.58;;
44512;SDS011;30219;50.588;9.504;2022-12-18T08:54:40;39.22;;;14.38;;
44512;SDS011;30219;50.588;9.504;2022-12-18T08:57:05;31.63;;;13.30;;
44512;SDS011;30219;50.588;9.504;2022-12-18T08:59:31;36.63;;;14.05;;
44512;SDS011;30219;50.588;9.504;2022-12-18T09:01:57;35.30;;;14.18;;
44512;SDS011;30219;50.588;9.504;2022-12-18T09:04:22;34.88;;;16.30;;
44512;SDS011;30219;50.588;9.504;2022-12-18T09:06:48;29.67;;;14.50;;
44512;SDS011;30219;50.588;9.504;2022-12-18T09:09:14;30.08;;;13.50;;
44512;SDS011;30219;50.588;9.504;2022-12-18T09:11:40;32.35;;;15.13;;
44512;SDS011;30219;50.588;9.504;2022-12-18T09:14:06;28.38;;;13.80;;
44512;SDS011;30219;50.588;9.504;2022-12-18T09:16:31;29.25;;;14.20;;
44512;SDS011;30219;50.588;9.504;2022-12-18T09:18:59;38.65;;;15.57;;
44512;SDS011;30219;50.588;9.504;2022-12-18T09:21:29;39.80;;;16.45;;
44512;SDS011;30219;50.588;9.504;2022-12-18T09:23:56;29.88;;;15.55;;
44512;SDS011;30219;50.588;9.504;2022-12-18T09:26:22;32.38;;;15.63;;
44512;SDS011;30219;50.588;9.504;2022-12-18T09:28:49;39.08;;;15.18;;
44512;SDS011;30219;50.588;9.504;2022-12-18T09:31:16;41.67;;;17.83;;
44512;SDS011;30219;50.588;9.504;2022-12-18T09:33:43;38.47;;;19.35;;
44512;SDS011;30219;50.588;9.504;2022-12-18T09:36:10;42.95;;;18.73;;
44512;SDS011;30219;50.588;9.504;2022-12-18T09:38:38;39.10;;;19.25;;
44512;SDS011;30219;50.588;9.504;2022-12-18T09:43:55;43.58;;;18.92;;
44512;SDS011;30219;50.588;9.504;2022-12-18T09:46:30;35.55;;;18.42;;
44512;SDS011;30219;50.588;9.504;2022-12-18T09:49:02;40.10;;;19.60;;
44512;SDS011;30219;50.588;9.504;2022-12-18T09:51:37;37.10;;;19.73;;
44512;SDS011;30219;50.588;9.504;2022-12-18T09:54:10;43.72;;;22.25;;
44512;SDS011;30219;50.588;9.504;2022-12-18T09:56:40;29.52;;;14.27;;
44512;SDS011;30219;50.588;9.504;2022-12-18T09:59:09;38.65;;;18.83;;
44512;SDS011;30219;50.588;9.504;2022-12-18T10:01:45;46.40;;;21.50;;
44512;SDS011;30219;50.588;9.504;2022-12-18T10:04:10;42.92;;;21.88;;
44512;SDS011;30219;50.588;9.504;2022-12-18T10:06:43;47.85;;;20.75;;
44512;SDS011;30219;50.588;9.504;2022-12-18T10:09:19;41.22;;;19.95;;
44512;SDS011;30219;50.588;9.504;2022-12-18T10:12:08;42.70;;;20.73;;
44512;SDS011;30219;50.588;9.504;2022-12-18T10:17:45;46.35;;;21.40;;
44512;SDS011;30219;50.588;9.504;2022-12-18T10:20:40;40.38;;;20.35;;
44512;SDS011;30219;50.588;9.504;2022-12-18T10:26:03;35.08;;;17.17;;
44512;SDS011;30219;50.588;9.504;2022-12-18T10:28:30;42.72;;;18.42;;
44512;SDS011;30219;50.588;9.504;2022-12-18T10:30:57;46.75;;;18.25;;
44512;SDS011;30219;50.588;9.504;2022-12-18T10:33:24;39.90;;;18.02;;
44512;SDS011;30219;50.588;9.504;2022-12-18T10:35:53;42.30;;;17.65;;
44512;SDS011;30219;50.588;9.504;2022-12-18T10:38:24;34.85;;;18.27;;
44512;SDS011;30219;50.588;9.504;2022-12-18T10:40:53;32.00;;;14.95;;
44512;SDS011;30219;50.588;9.504;2022-12-18T10:46:00;33.08;;;14.95;;
44512;SDS011;30219;50.588;9.504;2022-12-18T10:53:51;35.67;;;15.20;;
44512;SDS011;30219;50.588;9.504;2022-12-18T10:56:20;41.67;;;14.77;;
44512;SDS011;30219;50.588;9.504;2022-12-18T10:58:54;35.97;;;15.70;;
44512;SDS011;30219;50.588;9.504;2022-12-18T11:01:22;32.47;;;14.88;;
44512;SDS011;30219;50.588;9.504;2022-12-18T11:06:20;35.05;;;13.27;;
44512;SDS011;30219;50.588;9.504;2022-12-18T11:11:31;38.13;;;14.25;;
44512;SDS011;30219;50.588;9.504;2022-12-18T11:14:02;38.97;;;17.17;;
44512;SDS011;30219;50.588;9.504;2022-12-18T11:16:29;35.67;;;15.82;;
44512;SDS011;30219;50.588;9.504;2022-12-18T11:21:54;38.80;;;14.80;;
44512;SDS011;30219;50.588;9.504;2022-12-18T11:26:55;31.23;;;13.73;;
44512;SDS011;30219;50.588;9.504;2022-12-18T11:29:33;34.03;;;14.95;;
44512;SDS011;30219;50.588;9.504;2022-12-18T11:34:40;26.08;;;14.05;;
44512;SDS011;30219;50.588;9.504;2022-12-18T11:37:09;28.83;;;14.27;;
44512;SDS011;30219;50.588;9.504;2022-12-18T11:39:57;30.02;;;13.95;;
44512;SDS011;30219;50.588;9.504;2022-12-18T11:42:35;32.08;;;15.40;;
44512;SDS011;30219;50.588;9.504;2022-12-18T11:47:52;28.63;;;13.43;;
44512;SDS011;30219;50.588;9.504;2022-12-18T11:50:42;33.95;;;14.10;;
44512;SDS011;30219;50.588;9.504;2022-12-18T11:53:12;27.52;;;14.23;;
44512;SDS011;30219;50.588;9.504;2022-12-18T11:55:48;37.90;;;15.98;;
44512;SDS011;30219;50.588;9.504;2022-12-18T12:01:49;32.72;;;15.13;;
44512;SDS011;30219;50.588;9.504;2022-12-18T12:07:21;29.00;;;15.65;;
44512;SDS011;30219;50.588;9.504;2022-12-18T12:09:57;35.15;;;15.80;;
44512;SDS011;30219;50.588;9.504;2022-12-18T12:12:50;34.50;;;16.50;;
44512;SDS011;30219;50.588;9.504;2022-12-18T12:21:16;34.10;;;16.17;;
44512;SDS011;30219;50.588;9.504;2022-12-18T12:24:01;35.80;;;17.23;;
44512;SDS011;30219;50.588;9.504;2022-12-18T12:34:23;33.30;;;16.20;;
44512;SDS011;30219;50.588;9.504;2022-12-18T12:37:18;31.92;;;14.65;;
44512;SDS011;30219;50.588;9.504;2022-12-18T12:39:55;29.85;;;15.45;;
44512;SDS011;30219;50.588;9.504;2022-12-18T12:42:41;33.70;;;16.38;;
44512;SDS011;30219;50.588;9.504;2022-12-18T12:45:36;33.78;;;16.27;;
44512;SDS011;30219;50.588;9.504;2022-12-18T12:48:16;35.80;;;17.38;;
44512;SDS011;30219;50.588;9.504;2022-12-18T12:50:49;36.90;;;17.00;;
44512;SDS011;30219;50.588;9.504;2022-12-18T12:53:37;35.30;;;16.48;;
44512;SDS011;30219;50.588;9.504;2022-12-18T12:56:02;38.25;;;17.65;;
44512;SDS011;30219;50.588;9.504;2022-12-18T13:01:28;40.45;;;18.55;;
44512;SDS011;30219;50.588;9.504;2022-12-18T13:06:43;37.70;;;17.50;;
44512;SDS011;30219;50.588;9.504;2022-12-18T13:09:30;36.67;;;17.48;;
44512;SDS011;30219;50.588;9.504;2022-12-18T13:12:01;32.78;;;17.13;;
44512;SDS011;30219;50.588;9.504;2022-12-18T13:14:46;33.95;;;15.77;;
44512;SDS011;30219;50.588;9.504;2022-12-18T13:19:52;27.80;;;12.32;;
44512;SDS011;30219;50.588;9.504;2022-12-18T13:22:31;32.58;;;13.18;;
44512;SDS011;30219;50.588;9.504;2022-12-18T13:28:09;28.27;;;11.50;;
44512;SDS011;30219;50.588;9.504;2022-12-18T13:30:42;27.23;;;11.60;;
44512;SDS011;30219;50.588;9.504;2022-12-18T13:35:40;27.33;;;11.75;;
44512;SDS011;30219;50.588;9.504;2022-12-18T13:41:02;30.83;;;12.23;;
44512;SDS011;30219;50.588;9.504;2022-12-18T13:43:54;30.27;;;12.35;;
44512;SDS011;30219;50.588;9.504;2022-12-18T13:46:28;31.10;;;12.77;;
44512;SDS011;30219;50.588;9.504;2022-12-18T13:51:58;31.60;;;12.18;;
44512;SDS011;30219;50.588;9.504;2022-12-18T13:56:52;35.38;;;14.80;;
44512;SDS011;30219;50.588;9.504;2022-12-18T14:04:22;33.45;;;13.00;;
44512;SDS011;30219;50.588;9.504;2022-12-18T14:06:52;36.42;;;12.48;;
44512;SDS011;30219;50.588;9.504;2022-12-18T14:09:23;40.22;;;14.10;;
44512;SDS011;30219;50.588;9.504;2022-12-18T14:11:51;36.00;;;14.55;;
44512;SDS011;30219;50.588;9.504;2022-12-18T14:14:38;42.67;;;15.23;;
44512;SDS011;30219;50.588;9.504;2022-12-18T14:17:09;38.38;;;14.85;;
44512;SDS011;30219;50.588;9.504;2022-12-18T14:19:36;35.13;;;13.90;;
44512;SDS011;30219;50.588;9.504;2022-12-18T14:22:09;36.38;;;14.32;;
44512;SDS011;30219;50.588;9.504;2022-12-18T14:24:47;39.25;;;14.50;;
44512;SDS011;30219;50.588;9.504;2022-12-18T14:27:29;40.30;;;14.73;;
44512;SDS011;30219;50.588;9.504;2022-12-18T14:29:54;35.78;;;13.57;;
44512;SDS011;30219;50.588;9.504;2022-12-18T14:32:20;37.50;;;14.23;;
44512;SDS011;30219;50.588;9.504;2022-12-18T14:34:52;38.88;;;15.10;;
44512;SDS011;30219;50.588;9.504;2022-12-18T14:37:23;41.25;;;15.35;;
44512;SDS011;30219;50.588;9.504;2022-12-18T14:39:57;39.92;;;14.75;;
44512;SDS011;30219;50.588;9.504;2022-12-18T14:42:31;37.63;;;14.93;;
44512;SDS011;30219;50.588;9.504;2022-12-18T14:47:57;36.03;;;14.77;;
44512;SDS011;30219;50.588;9.504;2022-12-18T14:50:23;34.95;;;14.10;;
44512;SDS011;30219;50.588;9.504;2022-12-18T14:52:49;42.80;;;15.20;;
44512;SDS011;30219;50.588;9.504;2022-12-18T14:55:19;40.75;;;15.60;;
44512;SDS011;30219;50.588;9.504;2022-12-18T14:57:45;37.63;;;14.75;;
44512;SDS011;30219;50.588;9.504;2022-12-18T15:00:21;41.75;;;14.98;;
44512;SDS011;30219;50.588;9.504;2022-12-18T15:02:55;51.38;;;16.60;;
44512;SDS011;30219;50.588;9.504;2022-12-18T15:05:26;42.28;;;16.80;;
44512;SDS011;30219;50.588;9.504;2022-12-18T15:07:54;34.53;;;13.25;;
44512;SDS011;30219;50.588;9.504;2022-12-18T15:10:22;39.38;;;14.52;;
44512;SDS011;30219;50.588;9.504;2022-12-18T15:12:50;38.60;;;14.52;;
44512;SDS011;30219;50.588;9.504;2022-12-18T15:17:58;41.88;;;16.50;;
44512;SDS011;30219;50.588;9.504;2022-12-18T15:26:05;45.90;;;16.30;;
44512;SDS011;30219;50.588;9.504;2022-12-18T15:33:40;33.72;;;12.98;;
44512;SDS011;30219;50.588;9.504;2022-12-18T15:36:16;35.85;;;14.52;;
44512;SDS011;30219;50.588;9.504;2022-12-18T15:38:49;41.30;;;15.50;;
44512;SDS011;30219;50.588;9.504;2022-12-18T15:41:17;36.40;;;14.45;;
44512;SDS011;30219;50.588;9.504;2022-12-18T15:43:44;36.72;;;14.65;;
44512;SDS011;30219;50.588;9.504;2022-12-18T15:48:40;42.30;;;17.45;;
44512;SDS011;30219;50.588;9.504;2022-12-18T15:51:14;42.97;;;16.85;;
44512;SDS011;30219;50.588;9.504;2022-12-18T15:53:45;45.33;;;15.70;;
44512;SDS011;30219;50.588;9.504;2022-12-18T15:56:12;43.85;;;15.00;;
44512;SDS011;30219;50.588;9.504;2022-12-18T15:58:58;40.55;;;14.95;;
44512;SDS011;30219;50.588;9.504;2022-12-18T16:01:25;45.70;;;16.95;;
44512;SDS011;30219;50.588;9.504;2022-12-18T16:03:52;42.28;;;15.48;;
44512;SDS011;30219;50.588;9.504;2022-12-18T16:06:19;39.10;;;15.77;;
44512;SDS011;30219;50.588;9.504;2022-12-18T16:08:45;41.75;;;17.00;;
44512;SDS011;30219;50.588;9.504;2022-12-18T16:13:45;37.97;;;16.25;;
44512;SDS011;30219;50.588;9.504;2022-12-18T16:16:11;35.38;;;14.65;;
44512;SDS011;30219;50.588;9.504;2022-12-18T16:18:36;37.30;;;15.30;;
44512;SDS011;30219;50.588;9.504;2022-12-18T16:21:02;37.88;;;15.80;;
44512;SDS011;30219;50.588;9.504;2022-12-18T16:23:27;41.90;;;16.35;;
44512;SDS011;30219;50.588;9.504;2022-12-18T16:25:53;35.95;;;15.07;;
44512;SDS011;30219;50.588;9.504;2022-12-18T16:28:19;43.75;;;15.80;;
44512;SDS011;30219;50.588;9.504;2022-12-18T16:30:44;36.95;;;15.32;;
44512;SDS011;30219;50.588;9.504;2022-12-18T16:33:10;37.58;;;14.98;;
44512;SDS011;30219;50.588;9.504;2022-12-18T16:35:36;37.42;;;15.88;;